sensor_id;sensor_type;location;lat;lon;timestamp;P1;durP1;ratioP1;P2;durP2;ratioP2
20627;SDS011;10473;42.734;24.258;2023-12-29T00:00:27;3.93;;;2.10;;
20627;SDS011;10473;42.734;24.258;2023-12-29T00:03:00;2.23;;;1.73;;
20627;SDS011;10473;42.734;24.258;2023-12-29T00:05:30;1.03;;;0.73;;
20627;SDS011;10473;42.734;24.258;2023-12-29T00:07:58;0.87;;;0.87;;
20627;SDS011;10473;42.734;24.258;2023-12-29T00:10:28;0.00;;;0.00;;
20627;SDS011;10473;42.734;24.258;2023-12-29T00:12:57;0.83;;;0.43;;
20627;SDS011;10473;42.734;24.258;2023-12-29T00:15:25;0.00;;;0.00;;
20627;SDS011;10473;42.734;24.258;2023-12-29T00:17:53;0.00;;;0.00;;
20627;SDS011;10473;42.734;24.258;2023-12-29T00:20:22;0.10;;;0.10;;
20627;SDS011;10473;42.734;24.258;2023-12-29T00:22:52;0.47;;;0.47;;
20627;SDS011;10473;42.734;24.258;2023-12-29T00:25:24;0.20;;;0.20;;
20627;SDS011;10473;42.734;24.258;2023-12-29T00:27:52;0.73;;;0.73;;
20627;SDS011;10473;42.734;24.258;2023-12-29T00:30:19;0.77;;;0.77;;
20627;SDS011;10473;42.734;24.258;2023-12-29T00:32:48;0.40;;;0.30;;
20627;SDS011;10473;42.734;24.258;2023-12-29T00:35:16;0.00;;;0.00;;
20627;SDS011;10473;42.734;24.258;2023-12-29T00:37:44;0.00;;;0.00;;
20627;SDS011;10473;42.734;24.258;2023-12-29T00:40:13;0.00;;;0.00;;
20627;SDS011;10473;42.734;24.258;2023-12-29T00:42:41;0.07;;;0.07;;
20627;SDS011;10473;42.734;24.258;2023-12-29T00:45:09;0.00;;;0.00;;
20627;SDS011;10473;42.734;24.258;2023-12-29T00:47:42;0.00;;;0.00;;
20627;SDS011;10473;42.734;24.258;2023-12-29T00:50:10;0.50;;;0.50;;
20627;SDS011;10473;42.734;24.258;2023-12-29T00:52:38;0.03;;;0.00;;
20627;SDS011;10473;42.734;24.258;2023-12-29T00:55:06;0.10;;;0.10;;
20627;SDS011;10473;42.734;24.258;2023-12-29T00:57:35;0.73;;;0.73;;
20627;SDS011;10473;42.734;24.258;2023-12-29T01:00:07;0.00;;;0.00;;
20627;SDS011;10473;42.734;24.258;2023-12-29T01:02:41;0.50;;;0.30;;
20627;SDS011;10473;42.734;24.258;2023-12-29T01:05:08;0.30;;;0.30;;
20627;SDS011;10473;42.734;24.258;2023-12-29T01:07:36;0.10;;;0.10;;
20627;SDS011;10473;42.734;24.258;2023-12-29T01:10:04;0.40;;;0.40;;
20627;SDS011;10473;42.734;24.258;2023-12-29T01:12:33;0.30;;;0.30;;
20627;SDS011;10473;42.734;24.258;2023-12-29T01:15:03;0.30;;;0.30;;
20627;SDS011;10473;42.734;24.258;2023-12-29T01:17:31;0.07;;;0.07;;
20627;SDS011;10473;42.734;24.258;2023-12-29T01:19:59;0.00;;;0.00;;
20627;SDS011;10473;42.734;24.258;2023-12-29T01:22:28;0.07;;;0.07;;
20627;SDS011;10473;42.734;24.258;2023-12-29T01:24:58;0.43;;;0.43;;
20627;SDS011;10473;42.734;24.258;2023-12-29T01:27:28;0.30;;;0.30;;
20627;SDS011;10473;42.734;24.258;2023-12-29T01:29:57;0.77;;;0.77;;
20627;SDS011;10473;42.734;24.258;2023-12-29T01:32:27;0.83;;;0.83;;
20627;SDS011;10473;42.734;24.258;2023-12-29T01:34:55;1.13;;;1.13;;
20627;SDS011;10473;42.734;24.258;2023-12-29T01:37:24;1.83;;;1.70;;
20627;SDS011;10473;42.734;24.258;2023-12-29T01:39:51;1.27;;;0.83;;
20627;SDS011;10473;42.734;24.258;2023-12-29T01:42:19;0.07;;;0.00;;
20627;SDS011;10473;42.734;24.258;2023-12-29T01:44:47;0.20;;;0.20;;
20627;SDS011;10473;42.734;24.258;2023-12-29T01:47:19;0.00;;;0.00;;
20627;SDS011;10473;42.734;24.258;2023-12-29T01:49:49;0.10;;;0.10;;
20627;SDS011;10473;42.734;24.258;2023-12-29T01:52:20;0.00;;;0.00;;
20627;SDS011;10473;42.734;24.258;2023-12-29T01:54:53;0.00;;;0.00;;
20627;SDS011;10473;42.734;24.258;2023-12-29T01:57:21;0.00;;;0.00;;
20627;SDS011;10473;42.734;24.258;2023-12-29T01:59:50;0.00;;;0.00;;
20627;SDS011;10473;42.734;24.258;2023-12-29T02:02:18;0.20;;;0.17;;
20627;SDS011;10473;42.734;24.258;2023-12-29T02:04:46;0.07;;;0.07;;
20627;SDS011;10473;42.734;24.258;2023-12-29T02:07:16;0.00;;;0.00;;
20627;SDS011;10473;42.734;24.258;2023-12-29T02:09:45;0.10;;;0.10;;
20627;SDS011;10473;42.734;24.258;2023-12-29T02:12:13;0.30;;;0.30;;
20627;SDS011;10473;42.734;24.258;2023-12-29T02:14:41;0.20;;;0.20;;
20627;SDS011;10473;42.734;24.258;2023-12-29T02:17:10;0.10;;;0.10;;
20627;SDS011;10473;42.734;24.258;2023-12-29T02:19:51;0.03;;;0.03;;
20627;SDS011;10473;42.734;24.258;2023-12-29T02:22:20;0.03;;;0.03;;
20627;SDS011;10473;42.734;24.258;2023-12-29T02:24:50;0.00;;;0.00;;
20627;SDS011;10473;42.734;24.258;2023-12-29T02:27:23;0.00;;;0.00;;
20627;SDS011;10473;42.734;24.258;2023-12-29T02:30:01;0.20;;;0.20;;
20627;SDS011;10473;42.734;24.258;2023-12-29T02:32:36;0.20;;;0.10;;
20627;SDS011;10473;42.734;24.258;2023-12-29T02:35:08;0.00;;;0.00;;
20627;SDS011;10473;42.734;24.258;2023-12-29T02:37:38;0.00;;;0.00;;
20627;SDS011;10473;42.734;24.258;2023-12-29T02:40:08;0.10;;;0.00;;
20627;SDS011;10473;42.734;24.258;2023-12-29T02:42:37;0.00;;;0.00;;
20627;SDS011;10473;42.734;24.258;2023-12-29T02:45:05;0.00;;;0.00;;
20627;SDS011;10473;42.734;24.258;2023-12-29T02:47:33;0.20;;;0.20;;
20627;SDS011;10473;42.734;24.258;2023-12-29T02:50:01;0.00;;;0.00;;
20627;SDS011;10473;42.734;24.258;2023-12-29T02:52:55;0.00;;;0.00;;
20627;SDS011;10473;42.734;24.258;2023-12-29T02:55:25;0.00;;;0.00;;
20627;SDS011;10473;42.734;24.258;2023-12-29T02:57:53;0.40;;;0.40;;
20627;SDS011;10473;42.734;24.258;2023-12-29T03:00:22;0.00;;;0.00;;
20627;SDS011;10473;42.734;24.258;2023-12-29T03:02:50;0.00;;;0.00;;
20627;SDS011;10473;42.734;24.258;2023-12-29T03:05:17;0.00;;;0.00;;
20627;SDS011;10473;42.734;24.258;2023-12-29T03:07:45;0.83;;;0.20;;
20627;SDS011;10473;42.734;24.258;2023-12-29T03:10:13;0.10;;;0.10;;
20627;SDS011;10473;42.734;24.258;2023-12-29T03:12:42;0.00;;;0.00;;
20627;SDS011;10473;42.734;24.258;2023-12-29T03:15:10;4.87;;;0.47;;
20627;SDS011;10473;42.734;24.258;2023-12-29T03:17:37;0.00;;;0.00;;
20627;SDS011;10473;42.734;24.258;2023-12-29T03:20:06;0.00;;;0.00;;
20627;SDS011;10473;42.734;24.258;2023-12-29T03:22:34;0.00;;;0.00;;
20627;SDS011;10473;42.734;24.258;2023-12-29T03:25:02;0.00;;;0.00;;
20627;SDS011;10473;42.734;24.258;2023-12-29T03:27:30;0.00;;;0.00;;
20627;SDS011;10473;42.734;24.258;2023-12-29T03:29:59;0.30;;;0.30;;
20627;SDS011;10473;42.734;24.258;2023-12-29T03:32:27;0.00;;;0.00;;
20627;SDS011;10473;42.734;24.258;2023-12-29T03:34:55;0.10;;;0.10;;
20627;SDS011;10473;42.734;24.258;2023-12-29T03:37:22;0.00;;;0.00;;
20627;SDS011;10473;42.734;24.258;2023-12-29T03:39:50;0.10;;;0.10;;
20627;SDS011;10473;42.734;24.258;2023-12-29T03:42:18;0.33;;;0.33;;
20627;SDS011;10473;42.734;24.258;2023-12-29T03:44:46;0.10;;;0.10;;
20627;SDS011;10473;42.734;24.258;2023-12-29T03:47:15;0.00;;;0.00;;
20627;SDS011;10473;42.734;24.258;2023-12-29T03:49:43;0.00;;;0.00;;
20627;SDS011;10473;42.734;24.258;2023-12-29T03:52:11;0.37;;;0.37;;
20627;SDS011;10473;42.734;24.258;2023-12-29T03:54:38;2.47;;;0.53;;
20627;SDS011;10473;42.734;24.258;2023-12-29T03:57:06;0.00;;;0.00;;
20627;SDS011;10473;42.734;24.258;2023-12-29T03:59:35;0.23;;;0.23;;
20627;SDS011;10473;42.734;24.258;2023-12-29T04:02:03;0.00;;;0.00;;
20627;SDS011;10473;42.734;24.258;2023-12-29T04:04:34;0.00;;;0.00;;
20627;SDS011;10473;42.734;24.258;2023-12-29T04:07:04;0.20;;;0.20;;
20627;SDS011;10473;42.734;24.258;2023-12-29T04:09:32;0.17;;;0.03;;
20627;SDS011;10473;42.734;24.258;2023-12-29T04:11:59;0.10;;;0.10;;
20627;SDS011;10473;42.734;24.258;2023-12-29T04:14:27;0.00;;;0.00;;
20627;SDS011;10473;42.734;24.258;2023-12-29T04:16:55;0.10;;;0.10;;
20627;SDS011;10473;42.734;24.258;2023-12-29T04:19:22;0.10;;;0.10;;
20627;SDS011;10473;42.734;24.258;2023-12-29T04:21:51;0.00;;;0.00;;
20627;SDS011;10473;42.734;24.258;2023-12-29T04:24:19;0.00;;;0.00;;
20627;SDS011;10473;42.734;24.258;2023-12-29T04:26:47;0.13;;;0.07;;
20627;SDS011;10473;42.734;24.258;2023-12-29T04:29:15;3.20;;;1.10;;
20627;SDS011;10473;42.734;24.258;2023-12-29T04:31:42;0.93;;;0.53;;
20627;SDS011;10473;42.734;24.258;2023-12-29T04:34:12;0.00;;;0.00;;
20627;SDS011;10473;42.734;24.258;2023-12-29T04:36:40;0.40;;;0.40;;
20627;SDS011;10473;42.734;24.258;2023-12-29T04:39:09;0.77;;;0.77;;
20627;SDS011;10473;42.734;24.258;2023-12-29T04:41:37;0.00;;;0.00;;
20627;SDS011;10473;42.734;24.258;2023-12-29T04:44:05;0.00;;;0.00;;
20627;SDS011;10473;42.734;24.258;2023-12-29T04:46:32;0.17;;;0.17;;
20627;SDS011;10473;42.734;24.258;2023-12-29T04:49:00;0.00;;;0.00;;
20627;SDS011;10473;42.734;24.258;2023-12-29T04:51:28;0.63;;;0.43;;
20627;SDS011;10473;42.734;24.258;2023-12-29T04:53:56;0.40;;;0.40;;
20627;SDS011;10473;42.734;24.258;2023-12-29T04:56:25;0.50;;;0.50;;
20627;SDS011;10473;42.734;24.258;2023-12-29T04:58:53;0.73;;;0.73;;
20627;SDS011;10473;42.734;24.258;2023-12-29T05:01:22;1.60;;;1.43;;
20627;SDS011;10473;42.734;24.258;2023-12-29T05:03:50;2.43;;;1.07;;
20627;SDS011;10473;42.734;24.258;2023-12-29T05:06:18;1.00;;;0.40;;
20627;SDS011;10473;42.734;24.258;2023-12-29T05:08:45;0.33;;;0.30;;
20627;SDS011;10473;42.734;24.258;2023-12-29T05:11:13;1.03;;;0.90;;
20627;SDS011;10473;42.734;24.258;2023-12-29T05:13:42;0.20;;;0.20;;
20627;SDS011;10473;42.734;24.258;2023-12-29T05:16:11;0.30;;;0.30;;
20627;SDS011;10473;42.734;24.258;2023-12-29T05:18:40;0.00;;;0.00;;
20627;SDS011;10473;42.734;24.258;2023-12-29T05:21:13;0.20;;;0.10;;
20627;SDS011;10473;42.734;24.258;2023-12-29T05:23:43;1.63;;;0.20;;
20627;SDS011;10473;42.734;24.258;2023-12-29T05:26:11;1.57;;;1.20;;
20627;SDS011;10473;42.734;24.258;2023-12-29T05:28:39;1.27;;;1.23;;
20627;SDS011;10473;42.734;24.258;2023-12-29T05:31:08;0.73;;;0.73;;
20627;SDS011;10473;42.734;24.258;2023-12-29T05:33:36;2.23;;;0.47;;
20627;SDS011;10473;42.734;24.258;2023-12-29T05:36:06;0.80;;;0.80;;
20627;SDS011;10473;42.734;24.258;2023-12-29T05:38:34;0.10;;;0.10;;
20627;SDS011;10473;42.734;24.258;2023-12-29T05:41:02;0.00;;;0.00;;
20627;SDS011;10473;42.734;24.258;2023-12-29T05:43:32;0.00;;;0.00;;
20627;SDS011;10473;42.734;24.258;2023-12-29T05:46:00;0.10;;;0.10;;
20627;SDS011;10473;42.734;24.258;2023-12-29T05:48:30;0.00;;;0.00;;
20627;SDS011;10473;42.734;24.258;2023-12-29T05:50:57;0.00;;;0.00;;
20627;SDS011;10473;42.734;24.258;2023-12-29T05:53:25;0.10;;;0.10;;
20627;SDS011;10473;42.734;24.258;2023-12-29T05:55:53;0.10;;;0.10;;
20627;SDS011;10473;42.734;24.258;2023-12-29T05:58:21;0.00;;;0.00;;
20627;SDS011;10473;42.734;24.258;2023-12-29T06:00:49;0.57;;;0.43;;
20627;SDS011;10473;42.734;24.258;2023-12-29T06:03:17;0.47;;;0.30;;
20627;SDS011;10473;42.734;24.258;2023-12-29T06:05:46;0.37;;;0.37;;
20627;SDS011;10473;42.734;24.258;2023-12-29T06:08:14;0.47;;;0.47;;
20627;SDS011;10473;42.734;24.258;2023-12-29T06:10:42;0.63;;;0.53;;
20627;SDS011;10473;42.734;24.258;2023-12-29T06:13:10;0.20;;;0.20;;
20627;SDS011;10473;42.734;24.258;2023-12-29T06:15:38;0.00;;;0.00;;
20627;SDS011;10473;42.734;24.258;2023-12-29T06:18:06;0.20;;;0.20;;
20627;SDS011;10473;42.734;24.258;2023-12-29T06:20:33;0.10;;;0.10;;
20627;SDS011;10473;42.734;24.258;2023-12-29T06:23:03;0.23;;;0.10;;
20627;SDS011;10473;42.734;24.258;2023-12-29T06:25:31;0.00;;;0.00;;
20627;SDS011;10473;42.734;24.258;2023-12-29T06:28:00;0.17;;;0.07;;
20627;SDS011;10473;42.734;24.258;2023-12-29T06:30:29;0.17;;;0.17;;
20627;SDS011;10473;42.734;24.258;2023-12-29T06:32:57;0.77;;;0.77;;
20627;SDS011;10473;42.734;24.258;2023-12-29T06:35:25;0.87;;;0.87;;
20627;SDS011;10473;42.734;24.258;2023-12-29T06:37:53;0.70;;;0.47;;
20627;SDS011;10473;42.734;24.258;2023-12-29T06:40:23;0.20;;;0.20;;
20627;SDS011;10473;42.734;24.258;2023-12-29T06:42:51;0.63;;;0.57;;
20627;SDS011;10473;42.734;24.258;2023-12-29T06:45:19;0.30;;;0.20;;
20627;SDS011;10473;42.734;24.258;2023-12-29T06:47:47;0.50;;;0.37;;
20627;SDS011;10473;42.734;24.258;2023-12-29T06:50:15;0.80;;;0.80;;
20627;SDS011;10473;42.734;24.258;2023-12-29T06:52:45;1.10;;;1.10;;
20627;SDS011;10473;42.734;24.258;2023-12-29T06:55:13;1.50;;;1.27;;
20627;SDS011;10473;42.734;24.258;2023-12-29T06:57:43;8.80;;;2.77;;
20627;SDS011;10473;42.734;24.258;2023-12-29T07:00:11;3.27;;;1.70;;
20627;SDS011;10473;42.734;24.258;2023-12-29T07:02:39;1.63;;;1.53;;
20627;SDS011;10473;42.734;24.258;2023-12-29T07:05:07;2.30;;;1.53;;
20627;SDS011;10473;42.734;24.258;2023-12-29T07:07:35;1.43;;;1.33;;
20627;SDS011;10473;42.734;24.258;2023-12-29T07:10:04;3.03;;;2.80;;
20627;SDS011;10473;42.734;24.258;2023-12-29T07:12:32;3.67;;;1.87;;
20627;SDS011;10473;42.734;24.258;2023-12-29T07:15:02;1.70;;;1.40;;
20627;SDS011;10473;42.734;24.258;2023-12-29T07:17:30;4.03;;;2.83;;
20627;SDS011;10473;42.734;24.258;2023-12-29T07:19:58;1.33;;;1.33;;
20627;SDS011;10473;42.734;24.258;2023-12-29T07:22:26;0.83;;;0.70;;
20627;SDS011;10473;42.734;24.258;2023-12-29T07:24:57;4.20;;;2.30;;
20627;SDS011;10473;42.734;24.258;2023-12-29T07:27:27;2.43;;;2.03;;
20627;SDS011;10473;42.734;24.258;2023-12-29T07:29:55;8.07;;;3.90;;
20627;SDS011;10473;42.734;24.258;2023-12-29T07:32:25;4.47;;;2.63;;
20627;SDS011;10473;42.734;24.258;2023-12-29T07:34:53;3.90;;;3.17;;
20627;SDS011;10473;42.734;24.258;2023-12-29T07:37:22;4.10;;;3.63;;
20627;SDS011;10473;42.734;24.258;2023-12-29T07:39:49;2.87;;;2.67;;
20627;SDS011;10473;42.734;24.258;2023-12-29T07:42:17;3.80;;;3.50;;
20627;SDS011;10473;42.734;24.258;2023-12-29T07:44:45;2.93;;;2.67;;
20627;SDS011;10473;42.734;24.258;2023-12-29T07:47:13;2.47;;;2.27;;
20627;SDS011;10473;42.734;24.258;2023-12-29T07:49:43;2.87;;;2.27;;
20627;SDS011;10473;42.734;24.258;2023-12-29T07:52:10;4.90;;;3.07;;
20627;SDS011;10473;42.734;24.258;2023-12-29T07:54:40;3.73;;;3.43;;
20627;SDS011;10473;42.734;24.258;2023-12-29T07:57:07;5.17;;;3.00;;
20627;SDS011;10473;42.734;24.258;2023-12-29T07:59:35;7.07;;;4.90;;
20627;SDS011;10473;42.734;24.258;2023-12-29T08:02:03;6.43;;;4.03;;
20627;SDS011;10473;42.734;24.258;2023-12-29T08:04:32;3.20;;;2.80;;
20627;SDS011;10473;42.734;24.258;2023-12-29T08:07:02;2.03;;;1.70;;
20627;SDS011;10473;42.734;24.258;2023-12-29T08:09:31;3.63;;;1.93;;
20627;SDS011;10473;42.734;24.258;2023-12-29T08:11:59;1.80;;;1.70;;
20627;SDS011;10473;42.734;24.258;2023-12-29T08:14:27;1.30;;;0.90;;
20627;SDS011;10473;42.734;24.258;2023-12-29T08:16:55;5.73;;;1.50;;
20627;SDS011;10473;42.734;24.258;2023-12-29T08:19:27;1.00;;;0.90;;
20627;SDS011;10473;42.734;24.258;2023-12-29T08:21:55;1.23;;;1.00;;
20627;SDS011;10473;42.734;24.258;2023-12-29T08:24:25;0.80;;;0.73;;
20627;SDS011;10473;42.734;24.258;2023-12-29T08:26:56;1.80;;;1.30;;
20627;SDS011;10473;42.734;24.258;2023-12-29T08:29:25;1.43;;;1.33;;
20627;SDS011;10473;42.734;24.258;2023-12-29T08:31:53;1.20;;;1.03;;
20627;SDS011;10473;42.734;24.258;2023-12-29T08:34:21;0.57;;;0.57;;
20627;SDS011;10473;42.734;24.258;2023-12-29T08:36:49;1.07;;;0.97;;
20627;SDS011;10473;42.734;24.258;2023-12-29T08:39:17;1.03;;;0.67;;
20627;SDS011;10473;42.734;24.258;2023-12-29T08:41:48;0.30;;;0.30;;
20627;SDS011;10473;42.734;24.258;2023-12-29T08:44:17;1.43;;;0.77;;
20627;SDS011;10473;42.734;24.258;2023-12-29T08:46:46;0.60;;;0.40;;
20627;SDS011;10473;42.734;24.258;2023-12-29T08:49:13;0.80;;;0.80;;
20627;SDS011;10473;42.734;24.258;2023-12-29T08:51:42;0.53;;;0.53;;
20627;SDS011;10473;42.734;24.258;2023-12-29T08:54:09;1.27;;;1.27;;
20627;SDS011;10473;42.734;24.258;2023-12-29T08:56:37;0.87;;;0.87;;
20627;SDS011;10473;42.734;24.258;2023-12-29T08:59:07;0.70;;;0.70;;
20627;SDS011;10473;42.734;24.258;2023-12-29T09:01:40;0.90;;;0.90;;
20627;SDS011;10473;42.734;24.258;2023-12-29T09:04:08;1.43;;;1.33;;
20627;SDS011;10473;42.734;24.258;2023-12-29T09:06:36;0.77;;;0.70;;
20627;SDS011;10473;42.734;24.258;2023-12-29T09:09:04;0.93;;;0.93;;
20627;SDS011;10473;42.734;24.258;2023-12-29T09:11:32;0.70;;;0.67;;
20627;SDS011;10473;42.734;24.258;2023-12-29T09:14:00;0.40;;;0.40;;
20627;SDS011;10473;42.734;24.258;2023-12-29T09:16:29;0.60;;;0.60;;
20627;SDS011;10473;42.734;24.258;2023-12-29T09:18:57;0.93;;;0.80;;
20627;SDS011;10473;42.734;24.258;2023-12-29T09:21:25;0.57;;;0.57;;
20627;SDS011;10473;42.734;24.258;2023-12-29T09:23:53;1.13;;;0.97;;
20627;SDS011;10473;42.734;24.258;2023-12-29T09:26:20;0.57;;;0.57;;
20627;SDS011;10473;42.734;24.258;2023-12-29T09:28:48;1.33;;;1.13;;
20627;SDS011;10473;42.734;24.258;2023-12-29T09:31:17;0.53;;;0.53;;
20627;SDS011;10473;42.734;24.258;2023-12-29T09:33:46;1.27;;;1.17;;
20627;SDS011;10473;42.734;24.258;2023-12-29T09:36:14;1.03;;;0.97;;
20627;SDS011;10473;42.734;24.258;2023-12-29T09:38:42;0.90;;;0.90;;
20627;SDS011;10473;42.734;24.258;2023-12-29T09:41:13;1.93;;;1.03;;
20627;SDS011;10473;42.734;24.258;2023-12-29T09:43:44;0.77;;;0.77;;
20627;SDS011;10473;42.734;24.258;2023-12-29T09:46:21;2.20;;;1.17;;
20627;SDS011;10473;42.734;24.258;2023-12-29T09:48:52;0.73;;;0.57;;
20627;SDS011;10473;42.734;24.258;2023-12-29T09:51:25;0.87;;;0.83;;
20627;SDS011;10473;42.734;24.258;2023-12-29T09:56:49;1.70;;;1.03;;
20627;SDS011;10473;42.734;24.258;2023-12-29T09:59:16;0.50;;;0.50;;
20627;SDS011;10473;42.734;24.258;2023-12-29T10:01:45;1.60;;;1.50;;
20627;SDS011;10473;42.734;24.258;2023-12-29T10:04:15;1.97;;;1.80;;
20627;SDS011;10473;42.734;24.258;2023-12-29T10:06:44;0.70;;;0.70;;
20627;SDS011;10473;42.734;24.258;2023-12-29T10:09:21;0.95;;;0.82;;
20627;SDS011;10473;42.734;24.258;2023-12-29T10:11:58;0.60;;;0.50;;
20627;SDS011;10473;42.734;24.258;2023-12-29T10:14:33;7.80;;;1.13;;
20627;SDS011;10473;42.734;24.258;2023-12-29T10:17:09;0.57;;;0.57;;
20627;SDS011;10473;42.734;24.258;2023-12-29T10:19:46;0.75;;;0.75;;
20627;SDS011;10473;42.734;24.258;2023-12-29T10:22:24;2.03;;;1.92;;
20627;SDS011;10473;42.734;24.258;2023-12-29T10:25:05;3.65;;;2.65;;
20627;SDS011;10473;42.734;24.258;2023-12-29T10:27:35;2.15;;;1.85;;
20627;SDS011;10473;42.734;24.258;2023-12-29T10:30:04;2.80;;;2.17;;
20627;SDS011;10473;42.734;24.258;2023-12-29T10:32:36;2.67;;;1.10;;
20627;SDS011;10473;42.734;24.258;2023-12-29T10:35:09;1.00;;;0.93;;
20627;SDS011;10473;42.734;24.258;2023-12-29T10:37:37;0.93;;;0.85;;
20627;SDS011;10473;42.734;24.258;2023-12-29T10:40:07;0.73;;;0.63;;
20627;SDS011;10473;42.734;24.258;2023-12-29T10:42:37;2.53;;;1.30;;
20627;SDS011;10473;42.734;24.258;2023-12-29T10:45:19;1.08;;;0.98;;
20627;SDS011;10473;42.734;24.258;2023-12-29T10:47:47;0.82;;;0.82;;
20627;SDS011;10473;42.734;24.258;2023-12-29T10:50:17;0.90;;;0.90;;
20627;SDS011;10473;42.734;24.258;2023-12-29T10:52:44;0.73;;;0.73;;
20627;SDS011;10473;42.734;24.258;2023-12-29T10:55:12;1.00;;;0.88;;
20627;SDS011;10473;42.734;24.258;2023-12-29T10:57:40;1.40;;;1.30;;
20627;SDS011;10473;42.734;24.258;2023-12-29T11:00:09;1.67;;;0.95;;
20627;SDS011;10473;42.734;24.258;2023-12-29T11:02:38;1.92;;;1.77;;
20627;SDS011;10473;42.734;24.258;2023-12-29T11:05:07;1.08;;;1.05;;
20627;SDS011;10473;42.734;24.258;2023-12-29T11:07:41;2.67;;;1.58;;
20627;SDS011;10473;42.734;24.258;2023-12-29T11:10:09;1.33;;;1.23;;
20627;SDS011;10473;42.734;24.258;2023-12-29T11:12:37;3.65;;;1.33;;
20627;SDS011;10473;42.734;24.258;2023-12-29T11:15:05;1.88;;;1.00;;
20627;SDS011;10473;42.734;24.258;2023-12-29T11:17:34;1.30;;;1.13;;
20627;SDS011;10473;42.734;24.258;2023-12-29T11:20:03;4.90;;;1.35;;
20627;SDS011;10473;42.734;24.258;2023-12-29T11:22:31;4.00;;;3.38;;
20627;SDS011;10473;42.734;24.258;2023-12-29T11:25:01;4.03;;;3.42;;
20627;SDS011;10473;42.734;24.258;2023-12-29T11:27:29;6.50;;;5.22;;
20627;SDS011;10473;42.734;24.258;2023-12-29T11:29:57;11.77;;;8.65;;
20627;SDS011;10473;42.734;24.258;2023-12-29T11:32:45;4.75;;;4.28;;
20627;SDS011;10473;42.734;24.258;2023-12-29T11:35:17;4.20;;;3.60;;
20627;SDS011;10473;42.734;24.258;2023-12-29T11:38:02;1.50;;;1.40;;
20627;SDS011;10473;42.734;24.258;2023-12-29T11:40:50;3.13;;;1.30;;
20627;SDS011;10473;42.734;24.258;2023-12-29T11:43:25;2.75;;;1.23;;
20627;SDS011;10473;42.734;24.258;2023-12-29T11:45:53;1.17;;;1.08;;
20627;SDS011;10473;42.734;24.258;2023-12-29T11:51:29;1.05;;;0.95;;
20627;SDS011;10473;42.734;24.258;2023-12-29T11:53:59;1.02;;;1.02;;
20627;SDS011;10473;42.734;24.258;2023-12-29T11:56:33;1.02;;;0.80;;
20627;SDS011;10473;42.734;24.258;2023-12-29T11:59:14;0.60;;;0.60;;
20627;SDS011;10473;42.734;24.258;2023-12-29T12:01:43;0.80;;;0.80;;
20627;SDS011;10473;42.734;24.258;2023-12-29T12:07:05;2.13;;;1.25;;
20627;SDS011;10473;42.734;24.258;2023-12-29T12:09:33;0.80;;;0.80;;
20627;SDS011;10473;42.734;24.258;2023-12-29T12:12:03;0.60;;;0.60;;
20627;SDS011;10473;42.734;24.258;2023-12-29T12:14:50;0.90;;;0.90;;
20627;SDS011;10473;42.734;24.258;2023-12-29T12:17:28;0.88;;;0.88;;
20627;SDS011;10473;42.734;24.258;2023-12-29T12:20:01;1.40;;;1.17;;
20627;SDS011;10473;42.734;24.258;2023-12-29T12:22:31;1.40;;;1.30;;
20627;SDS011;10473;42.734;24.258;2023-12-29T12:24:59;1.65;;;1.15;;
20627;SDS011;10473;42.734;24.258;2023-12-29T12:27:29;0.88;;;0.82;;
20627;SDS011;10473;42.734;24.258;2023-12-29T12:29:58;0.60;;;0.60;;
20627;SDS011;10473;42.734;24.258;2023-12-29T12:32:26;0.30;;;0.30;;
20627;SDS011;10473;42.734;24.258;2023-12-29T12:34:55;1.30;;;1.00;;
20627;SDS011;10473;42.734;24.258;2023-12-29T12:37:23;1.42;;;1.23;;
20627;SDS011;10473;42.734;24.258;2023-12-29T12:39:53;1.05;;;0.98;;
20627;SDS011;10473;42.734;24.258;2023-12-29T12:42:20;2.15;;;1.63;;
20627;SDS011;10473;42.734;24.258;2023-12-29T12:44:54;1.05;;;0.98;;
20627;SDS011;10473;42.734;24.258;2023-12-29T12:47:25;0.88;;;0.68;;
20627;SDS011;10473;42.734;24.258;2023-12-29T12:49:55;1.02;;;1.02;;
20627;SDS011;10473;42.734;24.258;2023-12-29T12:52:22;1.02;;;0.98;;
20627;SDS011;10473;42.734;24.258;2023-12-29T12:54:50;1.48;;;1.13;;
20627;SDS011;10473;42.734;24.258;2023-12-29T12:57:21;3.47;;;2.22;;
20627;SDS011;10473;42.734;24.258;2023-12-29T12:59:51;2.08;;;1.00;;
20627;SDS011;10473;42.734;24.258;2023-12-29T13:02:21;1.77;;;1.67;;
20627;SDS011;10473;42.734;24.258;2023-12-29T13:04:50;1.30;;;0.70;;
20627;SDS011;10473;42.734;24.258;2023-12-29T13:07:19;0.93;;;0.73;;
20627;SDS011;10473;42.734;24.258;2023-12-29T13:09:48;1.13;;;1.10;;
20627;SDS011;10473;42.734;24.258;2023-12-29T13:12:17;1.13;;;1.00;;
20627;SDS011;10473;42.734;24.258;2023-12-29T13:14:45;0.87;;;0.83;;
20627;SDS011;10473;42.734;24.258;2023-12-29T13:17:14;4.37;;;1.70;;
20627;SDS011;10473;42.734;24.258;2023-12-29T13:19:43;1.07;;;0.77;;
20627;SDS011;10473;42.734;24.258;2023-12-29T13:22:11;2.60;;;1.50;;
20627;SDS011;10473;42.734;24.258;2023-12-29T13:24:43;1.30;;;1.20;;
20627;SDS011;10473;42.734;24.258;2023-12-29T13:27:12;3.47;;;1.57;;
20627;SDS011;10473;42.734;24.258;2023-12-29T13:29:40;1.13;;;0.97;;
20627;SDS011;10473;42.734;24.258;2023-12-29T13:32:10;1.23;;;1.10;;
20627;SDS011;10473;42.734;24.258;2023-12-29T13:34:47;1.63;;;1.53;;
20627;SDS011;10473;42.734;24.258;2023-12-29T13:37:22;4.17;;;0.80;;
20627;SDS011;10473;42.734;24.258;2023-12-29T13:39:59;1.30;;;1.17;;
20627;SDS011;10473;42.734;24.258;2023-12-29T13:42:36;1.33;;;1.23;;
20627;SDS011;10473;42.734;24.258;2023-12-29T13:45:06;1.33;;;0.83;;
20627;SDS011;10473;42.734;24.258;2023-12-29T13:47:36;1.83;;;1.27;;
20627;SDS011;10473;42.734;24.258;2023-12-29T13:50:08;0.93;;;0.93;;
20627;SDS011;10473;42.734;24.258;2023-12-29T13:52:37;1.07;;;1.03;;
20627;SDS011;10473;42.734;24.258;2023-12-29T13:55:05;0.93;;;0.93;;
20627;SDS011;10473;42.734;24.258;2023-12-29T13:57:33;1.10;;;1.10;;
20627;SDS011;10473;42.734;24.258;2023-12-29T14:00:14;1.37;;;1.27;;
20627;SDS011;10473;42.734;24.258;2023-12-29T14:02:43;1.63;;;1.53;;
20627;SDS011;10473;42.734;24.258;2023-12-29T14:05:18;3.23;;;1.50;;
20627;SDS011;10473;42.734;24.258;2023-12-29T14:07:48;1.13;;;0.93;;
20627;SDS011;10473;42.734;24.258;2023-12-29T14:10:21;2.37;;;1.70;;
20627;SDS011;10473;42.734;24.258;2023-12-29T14:12:49;1.17;;;0.80;;
20627;SDS011;10473;42.734;24.258;2023-12-29T14:15:16;0.83;;;0.83;;
20627;SDS011;10473;42.734;24.258;2023-12-29T14:17:44;0.60;;;0.60;;
20627;SDS011;10473;42.734;24.258;2023-12-29T14:20:12;0.87;;;0.87;;
20627;SDS011;10473;42.734;24.258;2023-12-29T14:23:02;1.17;;;1.07;;
20627;SDS011;10473;42.734;24.258;2023-12-29T14:25:30;2.63;;;2.33;;
20627;SDS011;10473;42.734;24.258;2023-12-29T14:28:01;2.60;;;1.67;;
20627;SDS011;10473;42.734;24.258;2023-12-29T14:30:29;2.37;;;1.30;;
